createdAt,value
2019-03-09T00:02:15.928Z,1.25
2019-03-09T00:04:44.147Z,1.42
2019-03-09T00:07:12.412Z,1.50
2019-03-09T00:09:40.913Z,1.35
2019-03-09T00:12:09.148Z,1.50
2019-03-09T00:14:37.374Z,1.40
2019-03-09T00:17:05.901Z,1.20
2019-03-09T00:19:34.378Z,1.50
2019-03-09T00:22:02.609Z,1.35
2019-03-09T00:24:45.074Z,1.22
2019-03-09T00:27:29.397Z,1.40
2019-03-09T00:29:55.097Z,1.30
2019-03-09T00:32:24.676Z,1.52
2019-03-09T00:34:52.897Z,1.30
2019-03-09T00:37:21.219Z,1.20
2019-03-09T00:39:49.443Z,1.67
2019-03-09T00:42:17.949Z,1.67
2019-03-09T00:44:46.169Z,1.15
2019-03-09T00:47:14.400Z,1.30
2019-03-09T00:49:42.620Z,1.50
2019-03-09T00:52:10.860Z,1.17
2019-03-09T00:54:39.080Z,1.10
2019-03-09T00:57:07.311Z,1.10
2019-03-09T00:59:35.534Z,1.10
2019-03-09T01:02:04.056Z,1.02
2019-03-09T01:04:32.272Z,1.10
2019-03-09T01:07:00.493Z,1.20
2019-03-09T01:09:28.734Z,1.20
2019-03-09T01:11:56.944Z,1.05
2019-03-09T01:14:25.176Z,0.95
2019-03-09T01:16:53.433Z,1.22
2019-03-09T01:19:21.990Z,1.10
2019-03-09T01:21:50.213Z,1.30
2019-03-09T01:24:18.436Z,1.20
2019-03-09T01:26:46.648Z,1.10
2019-03-09T01:29:14.876Z,1.20
2019-03-09T01:31:43.097Z,1.45
2019-03-09T01:34:11.331Z,1.30
2019-03-09T01:36:39.545Z,1.10
2019-03-09T01:39:07.776Z,0.82
2019-03-09T01:41:36.098Z,0.90
2019-03-09T01:44:04.324Z,1.15
2019-03-09T01:46:32.543Z,1.00
2019-03-09T01:49:00.780Z,0.90
2019-03-09T01:51:29.001Z,1.35
2019-03-09T01:53:57.238Z,1.10
2019-03-09T01:56:25.451Z,0.80
2019-03-09T01:58:53.689Z,0.90
2019-03-09T02:01:21.908Z,1.00
2019-03-09T02:03:50.140Z,0.90
2019-03-09T02:06:18.361Z,0.90
2019-03-09T02:08:46.637Z,1.10
2019-03-09T02:11:14.843Z,0.93
2019-03-09T02:13:43.073Z,1.27
2019-03-09T02:16:11.292Z,1.00
2019-03-09T02:18:39.819Z,0.80
2019-03-09T02:21:08.024Z,0.90
2019-03-09T02:23:36.256Z,0.90
2019-03-09T02:26:04.478Z,1.00
2019-03-09T02:28:32.704Z,0.80
2019-03-09T02:31:00.921Z,1.15
2019-03-09T02:33:29.151Z,0.70
2019-03-09T02:35:57.365Z,1.07
2019-03-09T02:38:36.496Z,1.05
2019-03-09T02:41:04.705Z,0.82
2019-03-09T02:43:32.948Z,1.07
2019-03-09T02:46:01.156Z,0.80
2019-03-09T02:48:29.384Z,0.90
2019-03-09T02:50:57.599Z,0.90
2019-03-09T02:53:26.473Z,0.90
2019-03-09T02:55:54.763Z,0.93
2019-03-09T02:58:22.968Z,0.80
2019-03-09T03:01:09.690Z,0.98
2019-03-09T03:03:38.002Z,1.02
2019-03-09T03:06:06.550Z,0.88
2019-03-09T03:08:35.029Z,0.70
2019-03-09T03:11:03.341Z,0.90
2019-03-09T03:13:31.557Z,0.88
2019-03-09T03:15:59.786Z,0.98
2019-03-09T03:18:28.008Z,0.80
2019-03-09T03:20:56.234Z,1.05
2019-03-09T03:23:24.453Z,0.88
2019-03-09T03:25:52.677Z,0.65
2019-03-09T03:28:20.893Z,1.17
2019-03-09T03:30:49.121Z,0.80
2019-03-09T03:33:17.341Z,1.22
2019-03-09T03:35:45.567Z,0.90
2019-03-09T03:38:13.784Z,0.65
2019-03-09T03:40:42.339Z,0.75
2019-03-09T03:43:10.612Z,0.78
2019-03-09T03:45:38.837Z,0.80
2019-03-09T03:48:07.053Z,1.00
2019-03-09T03:50:35.277Z,0.90
2019-03-09T03:53:03.505Z,0.90
2019-03-09T03:55:31.985Z,1.10
2019-03-09T03:58:00.209Z,0.90
2019-03-09T04:00:28.451Z,1.05
2019-03-09T04:02:56.661Z,1.30
2019-03-09T04:05:24.888Z,0.95
2019-03-09T04:07:53.173Z,0.88
2019-03-09T04:10:21.399Z,0.80
2019-03-09T04:12:49.622Z,1.00
2019-03-09T04:15:17.845Z,1.00
2019-03-09T04:17:46.075Z,0.85
2019-03-09T04:20:14.290Z,0.80
2019-03-09T04:22:42.507Z,0.80
2019-03-09T04:25:10.741Z,0.53
2019-03-09T04:27:38.959Z,0.70
2019-03-09T04:30:09.725Z,0.70
2019-03-09T04:32:37.944Z,0.78
2019-03-09T04:35:06.339Z,0.62
2019-03-09T04:37:34.558Z,0.50
2019-03-09T04:40:03.857Z,0.50
2019-03-09T04:42:32.080Z,0.70
2019-03-09T04:45:00.311Z,0.60
2019-03-09T04:47:28.569Z,0.60
2019-03-09T04:49:56.796Z,0.42
2019-03-09T04:52:25.301Z,0.62
2019-03-09T04:55:12.960Z,0.55
2019-03-09T04:57:41.178Z,0.40
2019-03-09T05:00:16.098Z,0.65
2019-03-09T05:02:44.313Z,0.70
2019-03-09T05:05:12.684Z,0.53
2019-03-09T05:07:43.875Z,0.70
2019-03-09T05:10:23.886Z,0.40
2019-03-09T05:13:01.726Z,0.82
2019-03-09T05:15:29.953Z,0.70
2019-03-09T05:17:58.444Z,0.78
2019-03-09T05:20:26.673Z,0.70
2019-03-09T05:22:54.888Z,0.70
2019-03-09T05:25:23.121Z,0.65
2019-03-09T05:27:51.336Z,0.40
2019-03-09T05:30:39.557Z,0.53
2019-03-09T05:33:07.776Z,0.60
2019-03-09T05:35:36.008Z,0.70
2019-03-09T05:38:04.333Z,0.53
2019-03-09T05:40:32.548Z,0.60
2019-03-09T05:43:01.084Z,0.62
2019-03-09T05:45:29.383Z,0.35
2019-03-09T05:47:57.647Z,0.60
2019-03-09T05:50:25.874Z,0.70
2019-03-09T05:53:17.058Z,0.57
2019-03-09T05:55:45.606Z,0.60
2019-03-09T05:58:13.820Z,0.78
2019-03-09T06:00:42.615Z,0.50
2019-03-09T06:03:10.844Z,0.57
2019-03-09T06:05:41.003Z,0.60
2019-03-09T06:08:09.385Z,0.97
2019-03-09T06:10:37.608Z,0.42
2019-03-09T06:13:05.833Z,0.70
2019-03-09T06:15:34.087Z,0.60
2019-03-09T06:18:02.306Z,0.57
2019-03-09T06:20:30.533Z,1.00
2019-03-09T06:22:58.753Z,0.85
2019-03-09T06:25:26.985Z,1.02
2019-03-09T06:27:55.205Z,1.67
2019-03-09T06:30:23.418Z,0.80
2019-03-09T06:33:20.564Z,0.60
2019-03-09T06:35:54.966Z,0.57
2019-03-09T06:38:42.900Z,0.50
2019-03-09T06:41:20.416Z,0.70
2019-03-09T06:43:48.721Z,0.55
2019-03-09T06:46:16.947Z,0.70
2019-03-09T06:48:45.160Z,0.57
2019-03-09T06:51:13.387Z,0.40
2019-03-09T06:53:41.608Z,0.70
2019-03-09T06:56:09.845Z,0.60
2019-03-09T06:58:57.532Z,0.98
2019-03-09T07:01:25.760Z,0.50
2019-03-09T07:03:53.980Z,0.68
2019-03-09T07:06:22.225Z,0.50
2019-03-09T07:08:50.444Z,0.50
2019-03-09T07:11:18.667Z,0.60
2019-03-09T07:13:52.913Z,0.65
2019-03-09T07:16:17.426Z,0.70
2019-03-09T07:18:45.651Z,0.40
2019-03-09T07:21:13.986Z,0.60
2019-03-09T07:23:42.201Z,0.60
2019-03-09T07:26:10.419Z,0.50
2019-03-09T07:28:38.644Z,0.37
2019-03-09T07:31:06.857Z,0.50
2019-03-09T07:33:35.090Z,0.42
2019-03-09T07:36:03.305Z,0.50
2019-03-09T07:38:31.532Z,0.50
2019-03-09T07:40:59.757Z,0.40
2019-03-09T07:43:27.981Z,0.60
2019-03-09T07:45:56.192Z,0.53
2019-03-09T07:48:24.424Z,0.42
2019-03-09T07:50:52.654Z,0.50
2019-03-09T07:53:20.874Z,0.37
2019-03-09T07:55:49.397Z,0.50
2019-03-09T07:58:17.626Z,0.40
2019-03-09T08:00:45.840Z,0.50
2019-03-09T08:03:14.069Z,0.40
2019-03-09T08:05:42.298Z,0.30
2019-03-09T08:08:10.518Z,0.35
2019-03-09T08:10:38.736Z,0.28
2019-03-09T08:13:06.978Z,0.40
2019-03-09T08:15:35.184Z,0.40
2019-03-09T08:18:03.412Z,0.40
2019-03-09T08:20:31.636Z,0.20
2019-03-09T08:22:59.881Z,0.30
2019-03-09T08:25:29.185Z,0.30
2019-03-09T08:27:57.545Z,0.35
2019-03-09T08:30:27.852Z,0.30
2019-03-09T08:32:56.084Z,0.30
2019-03-09T08:35:24.312Z,0.30
2019-03-09T08:37:52.867Z,0.20
2019-03-09T08:40:21.659Z,0.55
2019-03-09T08:42:49.889Z,0.50
2019-03-09T08:45:20.455Z,0.40
2019-03-09T08:47:52.556Z,0.40
2019-03-09T08:50:20.421Z,0.30
2019-03-09T08:52:48.745Z,0.30
2019-03-09T08:55:18.207Z,0.33
2019-03-09T08:57:46.622Z,0.30
2019-03-09T09:00:30.282Z,0.28
2019-03-09T09:02:58.985Z,0.10
2019-03-09T09:05:27.200Z,0.20
2019-03-09T09:07:55.737Z,0.10
2019-03-09T09:10:24.043Z,0.25
2019-03-09T09:12:52.425Z,0.35
2019-03-09T09:15:24.039Z,0.30
2019-03-09T09:17:52.274Z,0.20
2019-03-09T09:20:30.106Z,0.30
2019-03-09T09:22:58.626Z,0.20
2019-03-09T09:25:26.854Z,0.25
2019-03-09T09:27:55.193Z,0.28
2019-03-09T09:30:33.512Z,0.30
2019-03-09T09:33:01.754Z,0.30
2019-03-09T09:35:29.987Z,0.10
2019-03-09T09:37:58.222Z,0.30
2019-03-09T09:40:26.816Z,0.20
2019-03-09T09:42:55.223Z,0.30
2019-03-09T09:45:23.745Z,0.30
2019-03-09T09:47:51.969Z,0.40
2019-03-09T09:50:20.226Z,0.20
2019-03-09T09:52:48.450Z,0.33
2019-03-09T09:55:18.788Z,0.30
2019-03-09T09:57:47.008Z,0.30
2019-03-09T10:00:23.043Z,0.33
2019-03-09T10:02:51.265Z,0.30
2019-03-09T10:05:19.501Z,0.20
2019-03-09T10:07:47.793Z,0.10
2019-03-09T10:10:17.737Z,0.30
2019-03-09T10:12:46.069Z,0.23
2019-03-09T10:15:17.040Z,0.20
2019-03-09T10:17:45.265Z,0.40
2019-03-09T10:20:13.661Z,0.30
2019-03-09T10:22:41.924Z,0.50
2019-03-09T10:25:10.712Z,0.40
2019-03-09T10:27:39.186Z,0.35
2019-03-09T10:30:10.774Z,0.30
2019-03-09T10:32:38.992Z,0.30
2019-03-09T10:35:08.060Z,0.45
2019-03-09T10:37:36.420Z,0.40
2019-03-09T10:40:07.468Z,0.30
2019-03-09T10:45:04.785Z,0.40
2019-03-09T10:47:33.004Z,0.45
2019-03-09T10:50:01.240Z,0.55
2019-03-09T10:52:29.733Z,0.40
2019-03-09T10:54:57.968Z,0.20
2019-03-09T10:57:26.196Z,0.40
2019-03-09T10:59:54.770Z,0.60
2019-03-09T11:02:23.000Z,0.70
2019-03-09T11:04:51.541Z,0.40
2019-03-09T11:07:19.763Z,0.40
2019-03-09T11:09:47.997Z,0.50
2019-03-09T11:12:16.225Z,0.10
2019-03-09T11:14:44.736Z,0.30
2019-03-09T11:17:13.036Z,0.30
2019-03-09T11:19:41.602Z,0.10
2019-03-09T11:22:10.177Z,0.20
2019-03-09T11:24:38.412Z,0.20
2019-03-09T11:27:06.630Z,0.30
2019-03-09T11:29:34.873Z,0.50
2019-03-09T11:32:03.085Z,0.20
2019-03-09T11:34:31.317Z,0.30
2019-03-09T11:36:59.540Z,0.42
2019-03-09T11:39:28.009Z,0.30
2019-03-09T11:41:56.280Z,0.40
2019-03-09T11:44:24.503Z,0.45
2019-03-09T11:46:52.735Z,0.20
2019-03-09T11:49:21.221Z,2.47
2019-03-09T11:51:49.488Z,4.60
2019-03-09T11:54:17.705Z,0.30
2019-03-09T11:56:45.992Z,0.40
2019-03-09T11:59:14.209Z,0.53
2019-03-09T12:01:42.445Z,0.70
2019-03-09T12:04:10.703Z,0.80
2019-03-09T12:06:39.035Z,1.60
2019-03-09T12:09:07.367Z,0.40
2019-03-09T12:11:35.706Z,0.33
2019-03-09T12:14:03.992Z,0.30
2019-03-09T12:16:32.271Z,0.40
2019-03-09T12:19:00.496Z,0.50
2019-03-09T12:21:28.733Z,0.30
2019-03-09T12:23:56.948Z,0.25
2019-03-09T12:26:25.204Z,0.40
2019-03-09T12:28:53.427Z,0.40
2019-03-09T12:31:21.655Z,0.30
2019-03-09T12:33:49.877Z,0.30
2019-03-09T12:36:18.123Z,0.42
2019-03-09T12:38:46.344Z,0.33
2019-03-09T12:41:14.585Z,0.35
2019-03-09T12:43:43.309Z,0.30
2019-03-09T12:46:11.881Z,0.40
2019-03-09T12:48:40.101Z,0.40
2019-03-09T12:51:08.345Z,0.50
2019-03-09T12:53:36.841Z,0.50
2019-03-09T12:56:05.229Z,0.40
2019-03-09T12:58:33.451Z,0.40
2019-03-09T13:01:01.681Z,0.45
2019-03-09T13:03:29.941Z,0.50
2019-03-09T13:05:58.180Z,0.40
2019-03-09T13:08:26.404Z,0.47
2019-03-09T13:10:56.003Z,0.60
2019-03-09T13:13:24.449Z,0.47
2019-03-09T13:15:52.680Z,0.80
2019-03-09T13:18:20.901Z,0.60
2019-03-09T13:20:49.131Z,0.70
2019-03-09T13:23:17.357Z,0.50
2019-03-09T13:25:45.589Z,0.65
2019-03-09T13:28:13.808Z,0.50
2019-03-09T13:30:42.047Z,0.60
2019-03-09T13:33:10.265Z,0.60
2019-03-09T13:35:38.496Z,0.60
2019-03-09T13:38:06.724Z,0.75
2019-03-09T13:40:35.324Z,0.37
2019-03-09T13:43:03.549Z,0.47
2019-03-09T13:45:31.769Z,0.30
2019-03-09T13:48:00.329Z,0.70
2019-03-09T13:50:28.554Z,0.50
2019-03-09T13:52:56.779Z,0.57
2019-03-09T13:55:25.012Z,0.37
2019-03-09T13:57:53.228Z,0.35
2019-03-09T14:00:21.452Z,0.47
2019-03-09T14:02:50.000Z,0.53
2019-03-09T14:05:18.216Z,0.88
2019-03-09T14:07:46.448Z,0.47
2019-03-09T14:10:15.708Z,0.40
2019-03-09T14:12:43.943Z,0.60
2019-03-09T14:15:15.484Z,0.78
2019-03-09T14:17:43.724Z,0.60
2019-03-09T14:20:14.045Z,0.57
2019-03-09T14:22:42.545Z,0.60
2019-03-09T14:25:12.301Z,0.30
2019-03-09T14:27:40.536Z,0.37
2019-03-09T14:30:12.005Z,0.45
2019-03-09T14:32:40.237Z,0.40
2019-03-09T14:35:08.523Z,0.40
2019-03-09T14:37:36.758Z,0.50
2019-03-09T14:40:07.434Z,0.35
2019-03-09T14:42:36.036Z,0.37
2019-03-09T14:45:06.748Z,0.40
2019-03-09T14:47:34.989Z,0.40
2019-03-09T14:50:04.553Z,0.30
2019-03-09T14:52:32.784Z,0.50
2019-03-09T14:55:01.004Z,0.30
2019-03-09T14:57:29.577Z,0.25
2019-03-09T14:59:57.802Z,0.42
2019-03-09T15:02:26.033Z,0.33
2019-03-09T15:04:54.257Z,0.50
2019-03-09T15:07:22.493Z,0.42
2019-03-09T15:09:50.713Z,0.50
2019-03-09T15:12:18.948Z,0.40
2019-03-09T15:14:47.170Z,0.40
2019-03-09T15:17:15.404Z,0.60
2019-03-09T15:19:43.628Z,0.50
2019-03-09T15:22:11.857Z,1.15
2019-03-09T15:24:40.077Z,0.70
2019-03-09T15:27:08.308Z,1.80
2019-03-09T15:29:36.532Z,1.40
2019-03-09T15:32:04.768Z,1.05
2019-03-09T15:34:33.031Z,2.47
2019-03-09T15:37:01.260Z,1.70
2019-03-09T15:39:29.484Z,1.20
2019-03-09T15:41:57.768Z,0.80
2019-03-09T15:44:26.333Z,0.50
2019-03-09T15:46:54.801Z,0.60
2019-03-09T15:49:23.041Z,1.05
2019-03-09T15:51:51.273Z,0.53
2019-03-09T15:54:19.569Z,0.80
2019-03-09T15:56:47.804Z,1.20
2019-03-09T15:59:16.032Z,0.60
2019-03-09T16:01:44.347Z,0.60
2019-03-09T16:04:12.841Z,0.70
2019-03-09T16:06:41.080Z,0.72
2019-03-09T16:09:09.319Z,1.00
2019-03-09T16:11:44.661Z,1.07
2019-03-09T16:14:07.483Z,0.95
2019-03-09T16:16:35.749Z,0.60
2019-03-09T16:19:03.968Z,0.70
2019-03-09T16:21:32.212Z,0.50
2019-03-09T16:24:00.429Z,0.55
2019-03-09T16:26:28.661Z,0.60
2019-03-09T16:28:56.876Z,0.80
2019-03-09T16:31:25.369Z,0.55
2019-03-09T16:33:53.585Z,1.22
2019-03-09T16:36:22.689Z,0.53
2019-03-09T16:38:52.323Z,0.60
2019-03-09T16:41:20.589Z,0.70
2019-03-09T16:43:48.805Z,0.70
2019-03-09T16:46:17.046Z,2.15
2019-03-09T16:48:46.915Z,4.12
2019-03-09T16:51:15.193Z,1.17
2019-03-09T16:53:43.579Z,2.30
2019-03-09T16:56:11.809Z,0.90
2019-03-09T16:58:40.030Z,1.72
2019-03-09T17:01:08.261Z,1.80
2019-03-09T17:03:36.729Z,2.10
2019-03-09T17:06:05.286Z,0.82
2019-03-09T17:08:33.866Z,1.30
2019-03-09T17:11:02.118Z,1.00
2019-03-09T17:13:54.889Z,1.42
2019-03-09T17:16:23.191Z,0.60
2019-03-09T17:18:51.408Z,0.60
2019-03-09T17:21:19.631Z,0.70
2019-03-09T17:23:47.860Z,0.80
2019-03-09T17:26:16.081Z,0.70
2019-03-09T17:28:44.316Z,0.80
2019-03-09T17:31:12.645Z,1.70
2019-03-09T17:33:40.892Z,3.70
2019-03-09T17:36:09.113Z,2.35
2019-03-09T17:38:37.652Z,5.50
2019-03-09T17:41:05.872Z,8.95
2019-03-09T17:43:34.145Z,4.50
2019-03-09T17:46:02.440Z,0.70
2019-03-09T17:48:30.680Z,1.42
2019-03-09T17:50:58.901Z,0.80
2019-03-09T17:53:27.141Z,1.10
2019-03-09T17:55:55.360Z,0.72
2019-03-09T17:58:23.704Z,1.00
2019-03-09T18:00:51.912Z,0.70
2019-03-09T18:03:20.144Z,0.70
2019-03-09T18:05:48.369Z,0.98
2019-03-09T18:08:16.708Z,0.70
2019-03-09T18:10:56.657Z,0.80
2019-03-09T18:13:24.893Z,0.60
2019-03-09T18:15:53.374Z,0.57
2019-03-09T18:18:21.857Z,0.65
2019-03-09T18:20:50.076Z,0.70
2019-03-09T18:23:18.388Z,0.57
2019-03-09T18:25:46.604Z,0.57
2019-03-09T18:28:14.845Z,0.70
2019-03-09T18:30:43.073Z,0.70
2019-03-09T18:33:11.323Z,0.62
2019-03-09T18:35:41.868Z,0.50
2019-03-09T18:38:10.520Z,0.60
2019-03-09T18:40:38.820Z,0.70
2019-03-09T18:46:29.400Z,0.50
2019-03-09T18:48:57.904Z,0.70
2019-03-09T18:51:26.132Z,0.70
2019-03-09T18:53:57.606Z,0.60
2019-03-09T18:56:48.746Z,0.70
2019-03-09T18:59:16.974Z,0.85
2019-03-09T19:01:49.763Z,0.60
2019-03-09T19:04:19.516Z,0.68
2019-03-09T19:06:47.958Z,0.70
2019-03-09T19:09:16.479Z,0.60
2019-03-09T19:11:45.310Z,0.85
2019-03-09T19:14:13.578Z,0.70
2019-03-09T19:16:42.125Z,0.82
2019-03-09T19:19:10.608Z,0.80
2019-03-09T19:21:40.274Z,0.95
2019-03-09T19:24:08.716Z,1.02
2019-03-09T19:26:36.987Z,2.67
2019-03-09T19:29:05.220Z,2.00
2019-03-09T19:31:43.788Z,2.33
2019-03-09T19:34:16.936Z,3.10
2019-03-09T19:36:45.244Z,1.55
2019-03-09T19:39:13.541Z,2.17
2019-03-09T19:41:41.761Z,2.95
2019-03-09T19:44:09.992Z,3.42
2019-03-09T19:46:38.537Z,2.72
2019-03-09T19:49:07.157Z,1.15
2019-03-09T19:51:35.375Z,1.40
2019-03-09T19:54:03.617Z,1.87
2019-03-09T19:56:32.072Z,2.25
2019-03-09T19:59:00.312Z,1.45
2019-03-09T20:01:28.572Z,1.07
2019-03-09T20:03:56.816Z,0.82
2019-03-09T20:06:25.028Z,2.00
2019-03-09T20:08:53.400Z,3.40
2019-03-09T20:11:21.604Z,1.90
2019-03-09T20:13:49.845Z,1.10
2019-03-09T20:16:18.068Z,1.00
2019-03-09T20:18:46.317Z,0.80
2019-03-09T20:21:14.596Z,1.00
2019-03-09T20:23:44.379Z,0.98
2019-03-09T20:26:12.656Z,0.70
2019-03-09T20:28:40.873Z,1.20
2019-03-09T20:31:09.357Z,1.30
2019-03-09T20:33:37.590Z,1.30
2019-03-09T20:36:05.816Z,0.93
2019-03-09T20:38:34.047Z,0.93
2019-03-09T20:41:02.276Z,1.00
2019-03-09T20:43:30.841Z,0.90
2019-03-09T20:46:02.500Z,1.47
2019-03-09T20:48:30.856Z,1.35
2019-03-09T20:50:59.088Z,0.70
2019-03-09T20:53:27.636Z,0.70
2019-03-09T20:55:55.868Z,0.90
2019-03-09T20:58:24.096Z,0.93
2019-03-09T21:00:52.336Z,0.80
2019-03-09T21:03:22.771Z,0.90
2019-03-09T21:05:50.807Z,0.88
2019-03-09T21:08:19.032Z,0.95
2019-03-09T21:10:47.272Z,0.62
2019-03-09T21:13:15.789Z,0.70
2019-03-09T21:15:44.064Z,0.88
2019-03-09T21:18:12.664Z,0.93
2019-03-09T21:20:40.888Z,0.90
2019-03-09T21:23:09.104Z,1.00
2019-03-09T21:25:37.341Z,0.80
2019-03-09T21:28:05.870Z,0.90
2019-03-09T21:30:34.136Z,0.93
2019-03-09T21:33:02.616Z,1.10
2019-03-09T21:35:30.863Z,0.80
2019-03-09T21:37:59.396Z,0.70
2019-03-09T21:40:27.690Z,0.90
2019-03-09T21:42:55.912Z,1.00
2019-03-09T21:45:24.513Z,0.78
2019-03-09T21:47:52.732Z,0.90
2019-03-09T21:50:20.964Z,0.98
2019-03-09T21:52:49.184Z,0.80
2019-03-09T21:55:17.688Z,1.00
2019-03-09T21:57:45.909Z,0.90
2019-03-09T22:00:19.121Z,1.00
2019-03-09T22:02:47.344Z,1.20
2019-03-09T22:05:15.576Z,1.00
2019-03-09T22:07:43.799Z,0.88
2019-03-09T22:10:13.000Z,0.78
2019-03-09T22:12:41.317Z,1.00
2019-03-09T22:15:14.480Z,0.82
2019-03-09T22:17:42.703Z,0.80
2019-03-09T22:20:12.368Z,0.82
2019-03-09T22:22:40.845Z,0.85
2019-03-09T22:25:13.226Z,0.93
2019-03-09T22:27:41.446Z,0.88
2019-03-09T22:30:13.936Z,0.70
2019-03-09T22:32:42.149Z,0.80
2019-03-09T22:35:11.928Z,1.00
2019-03-09T22:37:40.152Z,1.00
2019-03-09T22:40:10.608Z,0.70
2019-03-09T22:42:38.876Z,0.95
2019-03-09T22:45:09.996Z,1.20
2019-03-09T22:50:18.283Z,0.90
2019-03-09T22:52:46.512Z,0.80
2019-03-09T22:55:14.730Z,1.00
2019-03-09T22:57:42.955Z,0.70
2019-03-09T23:00:20.563Z,0.88
2019-03-09T23:02:48.800Z,0.90
2019-03-09T23:05:17.103Z,1.07
2019-03-09T23:07:45.334Z,0.82
2019-03-09T23:10:19.075Z,1.00
2019-03-09T23:13:06.733Z,0.93
2019-03-09T23:15:34.970Z,0.90
2019-03-09T23:18:03.188Z,0.80
2019-03-09T23:20:31.408Z,0.90
2019-03-09T23:22:59.640Z,0.90
2019-03-09T23:25:27.865Z,1.02
2019-03-09T23:27:56.136Z,1.07
2019-03-09T23:30:24.396Z,1.05
2019-03-09T23:32:52.900Z,0.90
2019-03-09T23:35:21.201Z,0.90
2019-03-09T23:37:49.435Z,1.27
2019-03-09T23:40:23.969Z,1.12
2019-03-09T23:42:52.201Z,1.20
2019-03-09T23:45:24.824Z,0.90
2019-03-09T23:47:53.052Z,1.00
2019-03-09T23:50:21.296Z,1.07
2019-03-09T23:52:49.532Z,1.05
2019-03-09T23:55:22.400Z,0.93
2019-03-09T23:57:48.521Z,1.00
